Aeroporto :
LOGIN :

Iscrizione | Disclaimer

   EN    FR    IT 

 










Sommario :    VFR   VFR Marginale   IFR   IFR Intensivo   IFR Molto Intensivo
Visibilità : 
Base nubi : 
>= 8 km
>= 3000ft
5 / 8 km
1000 / 3000 ft
1500m / 5 km
500 / 1000 ft
800 / 1500m
200 / 500 ft
< 800m
< 200 ft
Simboli :   Temporali  Nebbia  Neve Forte  Precipitazioni Forti  Vento > 20 kt
SIGMETs :   Varie  Temporali  Ghiacco  Turbolenza  Onda orograficha  Ceneri Vulcaniche






- Altitudine del aeroporto : 741 ft
- Codice IATA : PED


LKPD - Pardubice AB

ULTIMO METAR :
  • 241300Z 24004KT 9999 OVC014 M00/M03 Q1024 NOSIG RMK GRN GRN

METARs OBSOLETI :
  • 241200Z 23002KT 9999 OVC014 M01/M03 Q1025 NOSIG RMK GRN GRN
  • 241100Z 20003KT 9999 OVC013 M01/M03 Q1025 NOSIG RMK GRN GRN

TAF TAF LKPD
Valido dal 24 a 12 ore il 25 a 12 ore UTC


241100Z 2412/2512 VRB02KT 9999 BKN017
TEMPO 2412/2414 7000 OVC012
BECMG 2414/2416 CAVOK
BECMG 2500/2502 4000 BR OVC010



MetMap, La meteo Aeronautica in un colpo d'occhio ! - Copyright ORBIFLY Dicembre 2007 - Disclaimer

ORBIFLY MET'MAP TEAM :

Programmazione e sviluppo : Alexandra Zaïnal
Concezione : Baudouin d'Aumeries
Aiuto per la programmazione : Marc-Olivier Méhu
Supporto tecnico e logistico : Manuel Goepfert
Aiuto per la traduzione : Arnaldo La Scala

Contatto : metmap@orbifly.com




FONTI E CREDITI :

   NOAA